sensor_id;sensor_type;location;lat;lon;timestamp;P1;durP1;ratioP1;P2;durP2;ratioP2
4895;SDS011;2463;49.948;8.472;2023-09-19T00:00:31;88.43;;;4.05;;
4895;SDS011;2463;49.948;8.472;2023-09-19T00:02:59;89.00;;;4.45;;
4895;SDS011;2463;49.948;8.472;2023-09-19T00:05:27;88.20;;;4.13;;
4895;SDS011;2463;49.948;8.472;2023-09-19T00:07:55;88.65;;;4.53;;
4895;SDS011;2463;49.948;8.472;2023-09-19T00:10:25;89.40;;;4.18;;
4895;SDS011;2463;49.948;8.472;2023-09-19T00:12:53;91.07;;;5.43;;
4895;SDS011;2463;49.948;8.472;2023-09-19T00:15:22;87.97;;;4.05;;
4895;SDS011;2463;49.948;8.472;2023-09-19T00:17:49;87.90;;;3.97;;
4895;SDS011;2463;49.948;8.472;2023-09-19T00:20:18;87.30;;;3.75;;
4895;SDS011;2463;49.948;8.472;2023-09-19T00:22:45;88.38;;;4.00;;
4895;SDS011;2463;49.948;8.472;2023-09-19T00:25:12;88.75;;;3.92;;
4895;SDS011;2463;49.948;8.472;2023-09-19T00:27:41;89.47;;;4.20;;
4895;SDS011;2463;49.948;8.472;2023-09-19T00:30:09;90.47;;;4.20;;
4895;SDS011;2463;49.948;8.472;2023-09-19T00:32:40;89.03;;;4.03;;
4895;SDS011;2463;49.948;8.472;2023-09-19T00:35:08;88.78;;;4.55;;
4895;SDS011;2463;49.948;8.472;2023-09-19T00:37:38;97.45;;;4.72;;
4895;SDS011;2463;49.948;8.472;2023-09-19T00:40:06;88.85;;;4.40;;
4895;SDS011;2463;49.948;8.472;2023-09-19T00:42:44;88.57;;;4.10;;
4895;SDS011;2463;49.948;8.472;2023-09-19T00:45:13;88.63;;;4.10;;
4895;SDS011;2463;49.948;8.472;2023-09-19T00:47:41;87.90;;;4.07;;
4895;SDS011;2463;49.948;8.472;2023-09-19T00:50:10;88.28;;;4.70;;
4895;SDS011;2463;49.948;8.472;2023-09-19T00:52:41;89.03;;;4.20;;
4895;SDS011;2463;49.948;8.472;2023-09-19T00:55:10;91.60;;;4.10;;
4895;SDS011;2463;49.948;8.472;2023-09-19T00:57:40;88.57;;;3.95;;
4895;SDS011;2463;49.948;8.472;2023-09-19T01:00:08;88.20;;;3.88;;
4895;SDS011;2463;49.948;8.472;2023-09-19T01:02:42;87.93;;;4.00;;
4895;SDS011;2463;49.948;8.472;2023-09-19T01:05:10;89.43;;;4.30;;
4895;SDS011;2463;49.948;8.472;2023-09-19T02:24:40;94.13;;;4.93;;
4895;SDS011;2463;49.948;8.472;2023-09-19T02:27:07;88.47;;;4.10;;
4895;SDS011;2463;49.948;8.472;2023-09-19T02:29:34;90.50;;;4.90;;
4895;SDS011;2463;49.948;8.472;2023-09-19T02:32:01;87.95;;;4.50;;
4895;SDS011;2463;49.948;8.472;2023-09-19T02:34:28;89.03;;;4.60;;
4895;SDS011;2463;49.948;8.472;2023-09-19T02:36:55;88.60;;;4.57;;
4895;SDS011;2463;49.948;8.472;2023-09-19T02:39:22;90.60;;;4.90;;
4895;SDS011;2463;49.948;8.472;2023-09-19T02:41:49;88.03;;;4.10;;
4895;SDS011;2463;49.948;8.472;2023-09-19T02:44:16;91.38;;;4.70;;
4895;SDS011;2463;49.948;8.472;2023-09-19T02:46:43;99.65;;;7.18;;
4895;SDS011;2463;49.948;8.472;2023-09-19T02:49:10;90.35;;;4.70;;
4895;SDS011;2463;49.948;8.472;2023-09-19T02:51:39;90.13;;;4.15;;
4895;SDS011;2463;49.948;8.472;2023-09-19T02:54:06;89.57;;;4.63;;
4895;SDS011;2463;49.948;8.472;2023-09-19T02:56:34;92.45;;;4.80;;
4895;SDS011;2463;49.948;8.472;2023-09-19T02:59:01;88.15;;;4.40;;
4895;SDS011;2463;49.948;8.472;2023-09-19T03:01:29;90.07;;;4.60;;
4895;SDS011;2463;49.948;8.472;2023-09-19T03:03:56;89.93;;;4.25;;
4895;SDS011;2463;49.948;8.472;2023-09-19T03:06:23;92.53;;;4.50;;
4895;SDS011;2463;49.948;8.472;2023-09-19T03:08:50;89.47;;;4.95;;
4895;SDS011;2463;49.948;8.472;2023-09-19T03:11:17;88.32;;;4.30;;
4895;SDS011;2463;49.948;8.472;2023-09-19T03:13:52;88.88;;;4.53;;
4895;SDS011;2463;49.948;8.472;2023-09-19T03:16:19;88.63;;;4.00;;
4895;SDS011;2463;49.948;8.472;2023-09-19T03:18:48;89.72;;;4.68;;
4895;SDS011;2463;49.948;8.472;2023-09-19T03:21:15;89.68;;;4.35;;
4895;SDS011;2463;49.948;8.472;2023-09-19T03:23:43;88.93;;;4.82;;
4895;SDS011;2463;49.948;8.472;2023-09-19T03:26:13;88.43;;;4.20;;
4895;SDS011;2463;49.948;8.472;2023-09-19T03:28:42;89.10;;;4.80;;
4895;SDS011;2463;49.948;8.472;2023-09-19T03:31:09;94.07;;;4.70;;
4895;SDS011;2463;49.948;8.472;2023-09-19T03:33:37;89.55;;;4.72;;
4895;SDS011;2463;49.948;8.472;2023-09-19T03:36:04;89.90;;;4.95;;
4895;SDS011;2463;49.948;8.472;2023-09-19T03:38:32;88.40;;;4.30;;
4895;SDS011;2463;49.948;8.472;2023-09-19T03:41:00;94.65;;;4.90;;
4895;SDS011;2463;49.948;8.472;2023-09-19T03:43:28;89.28;;;4.65;;
4895;SDS011;2463;49.948;8.472;2023-09-19T03:45:55;89.53;;;4.10;;
4895;SDS011;2463;49.948;8.472;2023-09-19T03:48:22;89.35;;;4.20;;
4895;SDS011;2463;49.948;8.472;2023-09-19T03:50:49;88.85;;;3.97;;
4895;SDS011;2463;49.948;8.472;2023-09-19T03:53:17;88.57;;;4.40;;
4895;SDS011;2463;49.948;8.472;2023-09-19T03:55:44;89.22;;;4.43;;
4895;SDS011;2463;49.948;8.472;2023-09-19T03:58:12;88.53;;;4.57;;
4895;SDS011;2463;49.948;8.472;2023-09-19T04:00:39;91.00;;;4.20;;
4895;SDS011;2463;49.948;8.472;2023-09-19T04:03:06;89.80;;;4.10;;
4895;SDS011;2463;49.948;8.472;2023-09-19T04:05:34;88.65;;;4.30;;
4895;SDS011;2463;49.948;8.472;2023-09-19T04:08:00;88.38;;;4.18;;
4895;SDS011;2463;49.948;8.472;2023-09-19T04:10:27;90.35;;;4.85;;
4895;SDS011;2463;49.948;8.472;2023-09-19T04:12:55;89.15;;;4.15;;
4895;SDS011;2463;49.948;8.472;2023-09-19T04:15:22;89.47;;;4.63;;
4895;SDS011;2463;49.948;8.472;2023-09-19T04:17:50;91.43;;;4.60;;
4895;SDS011;2463;49.948;8.472;2023-09-19T04:20:17;90.60;;;4.80;;
4895;SDS011;2463;49.948;8.472;2023-09-19T04:22:46;93.55;;;5.10;;
4895;SDS011;2463;49.948;8.472;2023-09-19T04:25:13;90.03;;;4.40;;
4895;SDS011;2463;49.948;8.472;2023-09-19T04:27:40;90.95;;;4.38;;
4895;SDS011;2463;49.948;8.472;2023-09-19T04:30:07;91.75;;;4.25;;
4895;SDS011;2463;49.948;8.472;2023-09-19T04:32:38;90.05;;;4.63;;
4895;SDS011;2463;49.948;8.472;2023-09-19T04:35:08;90.13;;;4.57;;
4895;SDS011;2463;49.948;8.472;2023-09-19T04:37:37;90.38;;;6.47;;
4895;SDS011;2463;49.948;8.472;2023-09-19T04:40:08;88.70;;;4.55;;
4895;SDS011;2463;49.948;8.472;2023-09-19T04:42:39;89.80;;;4.20;;
4895;SDS011;2463;49.948;8.472;2023-09-19T04:45:07;89.55;;;4.43;;
4895;SDS011;2463;49.948;8.472;2023-09-19T04:47:36;91.25;;;4.25;;
4895;SDS011;2463;49.948;8.472;2023-09-19T04:50:07;91.57;;;4.28;;
4895;SDS011;2463;49.948;8.472;2023-09-19T04:52:40;89.05;;;4.60;;
4895;SDS011;2463;49.948;8.472;2023-09-19T04:55:12;91.50;;;4.80;;
4895;SDS011;2463;49.948;8.472;2023-09-19T04:57:49;91.00;;;4.70;;
4895;SDS011;2463;49.948;8.472;2023-09-19T05:00:18;89.55;;;4.28;;
4895;SDS011;2463;49.948;8.472;2023-09-19T05:02:52;88.80;;;4.38;;
4895;SDS011;2463;49.948;8.472;2023-09-19T05:05:23;89.32;;;4.80;;
4895;SDS011;2463;49.948;8.472;2023-09-19T05:07:51;92.00;;;4.60;;
4895;SDS011;2463;49.948;8.472;2023-09-19T05:10:22;91.30;;;4.80;;
4895;SDS011;2463;49.948;8.472;2023-09-19T05:12:49;91.75;;;4.45;;
4895;SDS011;2463;49.948;8.472;2023-09-19T05:15:19;89.28;;;4.20;;
4895;SDS011;2463;49.948;8.472;2023-09-19T05:17:49;94.75;;;4.50;;
4895;SDS011;2463;49.948;8.472;2023-09-19T05:20:22;91.07;;;4.43;;
4895;SDS011;2463;49.948;8.472;2023-09-19T05:23:04;88.18;;;4.03;;
4895;SDS011;2463;49.948;8.472;2023-09-19T05:25:36;91.18;;;4.60;;
4895;SDS011;2463;49.948;8.472;2023-09-19T05:28:07;91.60;;;5.43;;
4895;SDS011;2463;49.948;8.472;2023-09-19T05:30:37;89.45;;;4.50;;
4895;SDS011;2463;49.948;8.472;2023-09-19T05:33:12;91.43;;;5.05;;
4895;SDS011;2463;49.948;8.472;2023-09-19T05:35:39;90.88;;;4.80;;
4895;SDS011;2463;49.948;8.472;2023-09-19T05:38:08;90.10;;;5.10;;
4895;SDS011;2463;49.948;8.472;2023-09-19T05:40:40;92.40;;;5.40;;
4895;SDS011;2463;49.948;8.472;2023-09-19T05:43:11;91.85;;;5.40;;
4895;SDS011;2463;49.948;8.472;2023-09-19T05:45:38;97.53;;;6.10;;
4895;SDS011;2463;49.948;8.472;2023-09-19T05:48:10;93.80;;;6.38;;
4895;SDS011;2463;49.948;8.472;2023-09-19T05:50:39;91.97;;;5.40;;
4895;SDS011;2463;49.948;8.472;2023-09-19T05:53:06;91.05;;;5.40;;
4895;SDS011;2463;49.948;8.472;2023-09-19T05:55:33;91.43;;;5.63;;
4895;SDS011;2463;49.948;8.472;2023-09-19T05:58:01;91.18;;;5.45;;
4895;SDS011;2463;49.948;8.472;2023-09-19T06:00:29;92.43;;;6.00;;
4895;SDS011;2463;49.948;8.472;2023-09-19T06:02:58;91.45;;;5.40;;
4895;SDS011;2463;49.948;8.472;2023-09-19T06:05:25;90.00;;;5.10;;
4895;SDS011;2463;49.948;8.472;2023-09-19T06:07:53;92.63;;;5.43;;
4895;SDS011;2463;49.948;8.472;2023-09-19T06:10:20;90.80;;;5.32;;
4895;SDS011;2463;49.948;8.472;2023-09-19T06:12:49;90.70;;;5.57;;
4895;SDS011;2463;49.948;8.472;2023-09-19T06:15:16;91.13;;;5.68;;
4895;SDS011;2463;49.948;8.472;2023-09-19T06:17:48;93.90;;;5.93;;
4895;SDS011;2463;49.948;8.472;2023-09-19T06:20:16;89.32;;;5.10;;
4895;SDS011;2463;49.948;8.472;2023-09-19T06:22:43;89.55;;;4.93;;
4895;SDS011;2463;49.948;8.472;2023-09-19T06:25:13;91.97;;;5.40;;
4895;SDS011;2463;49.948;8.472;2023-09-19T06:27:50;90.63;;;5.18;;
4895;SDS011;2463;49.948;8.472;2023-09-19T06:30:20;95.38;;;5.03;;
4895;SDS011;2463;49.948;8.472;2023-09-19T06:32:49;90.43;;;5.15;;
4895;SDS011;2463;49.948;8.472;2023-09-19T06:35:21;89.25;;;4.90;;
4895;SDS011;2463;49.948;8.472;2023-09-19T06:37:48;90.97;;;5.00;;
4895;SDS011;2463;49.948;8.472;2023-09-19T06:40:17;90.95;;;4.97;;
4895;SDS011;2463;49.948;8.472;2023-09-19T06:42:45;89.03;;;4.75;;
4895;SDS011;2463;49.948;8.472;2023-09-19T06:45:19;89.00;;;4.50;;
4895;SDS011;2463;49.948;8.472;2023-09-19T06:47:49;89.57;;;4.85;;
4895;SDS011;2463;49.948;8.472;2023-09-19T06:50:18;91.18;;;4.70;;
4895;SDS011;2463;49.948;8.472;2023-09-19T06:52:46;89.25;;;4.90;;
4895;SDS011;2463;49.948;8.472;2023-09-19T06:55:17;91.80;;;5.38;;
4895;SDS011;2463;49.948;8.472;2023-09-19T06:57:45;91.28;;;4.70;;
4895;SDS011;2463;49.948;8.472;2023-09-19T07:00:13;90.85;;;4.70;;
4895;SDS011;2463;49.948;8.472;2023-09-19T07:03:07;88.82;;;4.25;;
4895;SDS011;2463;49.948;8.472;2023-09-19T07:05:34;91.15;;;5.05;;
4895;SDS011;2463;49.948;8.472;2023-09-19T07:08:06;89.13;;;5.07;;
4895;SDS011;2463;49.948;8.472;2023-09-19T07:10:35;90.10;;;4.60;;
4895;SDS011;2463;49.948;8.472;2023-09-19T07:13:03;88.00;;;4.40;;
4895;SDS011;2463;49.948;8.472;2023-09-19T07:15:32;88.57;;;4.50;;
4895;SDS011;2463;49.948;8.472;2023-09-19T07:18:02;88.82;;;4.85;;
4895;SDS011;2463;49.948;8.472;2023-09-19T07:20:29;90.57;;;4.60;;
4895;SDS011;2463;49.948;8.472;2023-09-19T07:22:58;92.05;;;4.57;;
4895;SDS011;2463;49.948;8.472;2023-09-19T07:25:26;93.07;;;4.50;;
4895;SDS011;2463;49.948;8.472;2023-09-19T07:27:57;89.72;;;4.57;;
4895;SDS011;2463;49.948;8.472;2023-09-19T07:30:27;89.95;;;4.30;;
4895;SDS011;2463;49.948;8.472;2023-09-19T07:32:54;90.28;;;4.45;;
4895;SDS011;2463;49.948;8.472;2023-09-19T07:35:21;91.22;;;4.32;;
4895;SDS011;2463;49.948;8.472;2023-09-19T07:37:49;88.18;;;4.05;;
4895;SDS011;2463;49.948;8.472;2023-09-19T07:40:17;89.35;;;4.40;;
4895;SDS011;2463;49.948;8.472;2023-09-19T07:42:45;93.28;;;4.00;;
4895;SDS011;2463;49.948;8.472;2023-09-19T07:45:13;87.47;;;3.75;;
4895;SDS011;2463;49.948;8.472;2023-09-19T07:47:47;90.32;;;4.25;;
4895;SDS011;2463;49.948;8.472;2023-09-19T07:50:16;87.55;;;4.00;;
4895;SDS011;2463;49.948;8.472;2023-09-19T07:52:47;87.25;;;3.80;;
4895;SDS011;2463;49.948;8.472;2023-09-19T07:55:17;89.53;;;4.00;;
4895;SDS011;2463;49.948;8.472;2023-09-19T07:57:46;90.05;;;4.32;;
4895;SDS011;2463;49.948;8.472;2023-09-19T08:00:13;87.10;;;3.90;;
4895;SDS011;2463;49.948;8.472;2023-09-19T08:02:40;89.40;;;4.10;;
4895;SDS011;2463;49.948;8.472;2023-09-19T08:05:08;89.15;;;3.92;;
4895;SDS011;2463;49.948;8.472;2023-09-19T08:07:44;88.32;;;4.22;;
4895;SDS011;2463;49.948;8.472;2023-09-19T08:10:15;88.22;;;4.28;;
4895;SDS011;2463;49.948;8.472;2023-09-19T08:12:42;89.40;;;4.20;;
4895;SDS011;2463;49.948;8.472;2023-09-19T08:15:16;88.65;;;3.70;;
4895;SDS011;2463;49.948;8.472;2023-09-19T08:17:49;88.05;;;3.85;;
4895;SDS011;2463;49.948;8.472;2023-09-19T08:20:16;89.30;;;4.10;;
4895;SDS011;2463;49.948;8.472;2023-09-19T08:22:48;88.00;;;3.80;;
4895;SDS011;2463;49.948;8.472;2023-09-19T08:25:18;87.53;;;4.05;;
4895;SDS011;2463;49.948;8.472;2023-09-19T08:27:45;87.05;;;3.60;;
4895;SDS011;2463;49.948;8.472;2023-09-19T08:30:15;87.25;;;3.67;;
4895;SDS011;2463;49.948;8.472;2023-09-19T08:32:44;88.47;;;3.90;;
4895;SDS011;2463;49.948;8.472;2023-09-19T08:35:12;88.30;;;3.88;;
4895;SDS011;2463;49.948;8.472;2023-09-19T08:37:41;89.03;;;3.90;;
4895;SDS011;2463;49.948;8.472;2023-09-19T08:40:09;88.10;;;3.97;;
4895;SDS011;2463;49.948;8.472;2023-09-19T08:45:19;87.90;;;3.85;;
4895;SDS011;2463;49.948;8.472;2023-09-19T08:48:00;86.07;;;3.60;;
4895;SDS011;2463;49.948;8.472;2023-09-19T08:50:53;91.60;;;3.97;;
4895;SDS011;2463;49.948;8.472;2023-09-19T08:53:41;86.70;;;3.83;;
4895;SDS011;2463;49.948;8.472;2023-09-19T08:56:15;86.63;;;3.50;;
4895;SDS011;2463;49.948;8.472;2023-09-19T09:01:20;86.65;;;3.58;;
4895;SDS011;2463;49.948;8.472;2023-09-19T09:03:52;85.65;;;3.60;;
4895;SDS011;2463;49.948;8.472;2023-09-19T09:06:20;86.45;;;3.50;;
4895;SDS011;2463;49.948;8.472;2023-09-19T09:08:47;88.18;;;3.75;;
4895;SDS011;2463;49.948;8.472;2023-09-19T09:11:14;86.03;;;3.33;;
4895;SDS011;2463;49.948;8.472;2023-09-19T09:13:43;88.57;;;3.60;;
4895;SDS011;2463;49.948;8.472;2023-09-19T09:16:11;85.80;;;3.55;;
4895;SDS011;2463;49.948;8.472;2023-09-19T09:18:39;85.32;;;3.40;;
4895;SDS011;2463;49.948;8.472;2023-09-19T09:21:07;89.22;;;3.60;;
4895;SDS011;2463;49.948;8.472;2023-09-19T09:23:36;88.97;;;4.10;;
4895;SDS011;2463;49.948;8.472;2023-09-19T09:26:03;86.75;;;3.88;;
4895;SDS011;2463;49.948;8.472;2023-09-19T09:28:33;88.78;;;3.70;;
4895;SDS011;2463;49.948;8.472;2023-09-19T09:31:01;86.15;;;3.35;;
4895;SDS011;2463;49.948;8.472;2023-09-19T09:33:35;93.85;;;3.65;;
4895;SDS011;2463;49.948;8.472;2023-09-19T09:36:02;87.80;;;3.70;;
4895;SDS011;2463;49.948;8.472;2023-09-19T09:38:46;86.90;;;3.40;;
4895;SDS011;2463;49.948;8.472;2023-09-19T09:41:21;88.50;;;4.10;;
4895;SDS011;2463;49.948;8.472;2023-09-19T09:44:13;94.15;;;4.32;;
4895;SDS011;2463;49.948;8.472;2023-09-19T09:46:42;86.93;;;3.67;;
4895;SDS011;2463;49.948;8.472;2023-09-19T09:49:22;87.85;;;3.10;;
4895;SDS011;2463;49.948;8.472;2023-09-19T09:52:01;86.63;;;3.58;;
4895;SDS011;2463;49.948;8.472;2023-09-19T09:54:35;89.95;;;3.60;;
4895;SDS011;2463;49.948;8.472;2023-09-19T09:57:05;86.32;;;3.50;;
4895;SDS011;2463;49.948;8.472;2023-09-19T10:02:30;90.63;;;3.60;;
4895;SDS011;2463;49.948;8.472;2023-09-19T10:07:47;86.93;;;3.40;;
4895;SDS011;2463;49.948;8.472;2023-09-19T10:10:29;83.97;;;3.63;;
4895;SDS011;2463;49.948;8.472;2023-09-19T10:13:05;88.53;;;3.58;;
4895;SDS011;2463;49.948;8.472;2023-09-19T10:15:34;86.97;;;3.47;;
4895;SDS011;2463;49.948;8.472;2023-09-19T10:18:05;84.13;;;3.10;;
4895;SDS011;2463;49.948;8.472;2023-09-19T10:20:34;85.88;;;3.70;;
4895;SDS011;2463;49.948;8.472;2023-09-19T10:23:08;92.25;;;4.75;;
4895;SDS011;2463;49.948;8.472;2023-09-19T10:25:40;86.10;;;4.03;;
4895;SDS011;2463;49.948;8.472;2023-09-19T10:28:11;90.87;;;3.80;;
4895;SDS011;2463;49.948;8.472;2023-09-19T10:30:44;85.03;;;3.37;;
4895;SDS011;2463;49.948;8.472;2023-09-19T10:33:14;91.03;;;3.60;;
4895;SDS011;2463;49.948;8.472;2023-09-19T10:35:43;86.50;;;3.37;;
4895;SDS011;2463;49.948;8.472;2023-09-19T10:38:12;86.87;;;3.50;;
4895;SDS011;2463;49.948;8.472;2023-09-19T10:40:47;93.43;;;3.70;;
4895;SDS011;2463;49.948;8.472;2023-09-19T10:43:17;84.87;;;3.30;;
4895;SDS011;2463;49.948;8.472;2023-09-19T10:45:45;85.50;;;3.93;;
4895;SDS011;2463;49.948;8.472;2023-09-19T10:48:16;85.97;;;3.60;;
4895;SDS011;2463;49.948;8.472;2023-09-19T10:50:48;83.77;;;3.70;;
4895;SDS011;2463;49.948;8.472;2023-09-19T10:53:55;89.27;;;3.40;;
4895;SDS011;2463;49.948;8.472;2023-09-19T10:56:31;86.30;;;3.40;;
4895;SDS011;2463;49.948;8.472;2023-09-19T10:59:10;89.10;;;4.07;;
4895;SDS011;2463;49.948;8.472;2023-09-19T11:01:43;86.37;;;3.50;;
4895;SDS011;2463;49.948;8.472;2023-09-19T11:04:20;84.50;;;3.40;;
4895;SDS011;2463;49.948;8.472;2023-09-19T11:15:03;82.10;;;3.30;;
4895;SDS011;2463;49.948;8.472;2023-09-19T11:17:34;91.93;;;4.03;;
4895;SDS011;2463;49.948;8.472;2023-09-19T11:30:43;89.30;;;3.27;;
4895;SDS011;2463;49.948;8.472;2023-09-19T11:41:56;86.93;;;3.63;;
4895;SDS011;2463;49.948;8.472;2023-09-19T11:46:55;84.60;;;3.30;;
4895;SDS011;2463;49.948;8.472;2023-09-19T11:49:28;83.57;;;3.13;;
4895;SDS011;2463;49.948;8.472;2023-09-19T11:51:58;84.93;;;3.40;;
4895;SDS011;2463;49.948;8.472;2023-09-19T11:54:31;81.87;;;2.70;;
4895;SDS011;2463;49.948;8.472;2023-09-19T11:56:59;83.10;;;2.90;;
4895;SDS011;2463;49.948;8.472;2023-09-19T11:59:27;84.60;;;2.90;;
4895;SDS011;2463;49.948;8.472;2023-09-19T12:02:00;81.80;;;3.10;;
4895;SDS011;2463;49.948;8.472;2023-09-19T12:07:08;81.87;;;3.23;;
4895;SDS011;2463;49.948;8.472;2023-09-19T12:09:44;83.67;;;2.93;;
4895;SDS011;2463;49.948;8.472;2023-09-19T12:12:21;84.00;;;3.20;;
4895;SDS011;2463;49.948;8.472;2023-09-19T12:14:50;81.90;;;2.90;;
4895;SDS011;2463;49.948;8.472;2023-09-19T12:17:17;82.87;;;3.00;;
4895;SDS011;2463;49.948;8.472;2023-09-19T12:19:55;84.07;;;3.40;;
4895;SDS011;2463;49.948;8.472;2023-09-19T12:22:22;82.30;;;2.80;;
4895;SDS011;2463;49.948;8.472;2023-09-19T12:24:49;82.43;;;3.10;;
4895;SDS011;2463;49.948;8.472;2023-09-19T12:27:17;85.40;;;3.20;;
4895;SDS011;2463;49.948;8.472;2023-09-19T12:29:44;83.43;;;3.30;;
4895;SDS011;2463;49.948;8.472;2023-09-19T12:32:36;84.50;;;3.10;;
4895;SDS011;2463;49.948;8.472;2023-09-19T12:35:06;81.97;;;2.80;;
4895;SDS011;2463;49.948;8.472;2023-09-19T12:37:51;83.73;;;3.00;;
4895;SDS011;2463;49.948;8.472;2023-09-19T12:40:21;82.30;;;2.90;;
4895;SDS011;2463;49.948;8.472;2023-09-19T12:42:49;82.37;;;2.97;;
4895;SDS011;2463;49.948;8.472;2023-09-19T12:45:16;84.67;;;3.03;;
4895;SDS011;2463;49.948;8.472;2023-09-19T12:51:05;82.40;;;2.87;;
4895;SDS011;2463;49.948;8.472;2023-09-19T12:53:34;82.20;;;3.00;;
4895;SDS011;2463;49.948;8.472;2023-09-19T12:56:08;85.00;;;3.33;;
4895;SDS011;2463;49.948;8.472;2023-09-19T12:58:52;88.20;;;3.57;;
4895;SDS011;2463;49.948;8.472;2023-09-19T13:01:21;85.97;;;3.33;;
4895;SDS011;2463;49.948;8.472;2023-09-19T13:06:56;84.27;;;3.20;;
4895;SDS011;2463;49.948;8.472;2023-09-19T13:09:27;82.87;;;3.00;;
4895;SDS011;2463;49.948;8.472;2023-09-19T13:12:00;84.37;;;3.37;;
4895;SDS011;2463;49.948;8.472;2023-09-19T13:14:29;82.00;;;3.00;;
4895;SDS011;2463;49.948;8.472;2023-09-19T13:17:06;81.70;;;2.87;;
4895;SDS011;2463;49.948;8.472;2023-09-19T13:19:48;81.17;;;2.90;;
4895;SDS011;2463;49.948;8.472;2023-09-19T13:22:37;83.27;;;3.20;;
4895;SDS011;2463;49.948;8.472;2023-09-19T13:25:07;84.30;;;3.03;;
4895;SDS011;2463;49.948;8.472;2023-09-19T13:27:40;82.43;;;3.00;;
4895;SDS011;2463;49.948;8.472;2023-09-19T13:30:08;84.50;;;3.07;;
4895;SDS011;2463;49.948;8.472;2023-09-19T13:32:35;82.00;;;3.10;;
4895;SDS011;2463;49.948;8.472;2023-09-19T13:35:02;85.17;;;3.10;;
4895;SDS011;2463;49.948;8.472;2023-09-19T13:37:33;83.70;;;3.10;;
4895;SDS011;2463;49.948;8.472;2023-09-19T13:40:01;85.03;;;3.20;;
4895;SDS011;2463;49.948;8.472;2023-09-19T13:42:29;82.80;;;3.17;;
4895;SDS011;2463;49.948;8.472;2023-09-19T13:44:56;85.87;;;3.33;;
4895;SDS011;2463;49.948;8.472;2023-09-19T13:47:22;82.90;;;3.30;;
4895;SDS011;2463;49.948;8.472;2023-09-19T13:49:52;87.87;;;3.43;;
4895;SDS011;2463;49.948;8.472;2023-09-19T13:52:19;83.43;;;3.00;;
4895;SDS011;2463;49.948;8.472;2023-09-19T13:54:52;81.87;;;2.90;;
4895;SDS011;2463;49.948;8.472;2023-09-19T13:57:23;85.90;;;3.70;;
4895;SDS011;2463;49.948;8.472;2023-09-19T13:59:50;84.70;;;3.10;;
4895;SDS011;2463;49.948;8.472;2023-09-19T14:02:17;82.80;;;3.08;;
4895;SDS011;2463;49.948;8.472;2023-09-19T14:04:44;87.00;;;3.42;;
4895;SDS011;2463;49.948;8.472;2023-09-19T14:07:11;86.60;;;3.22;;
4895;SDS011;2463;49.948;8.472;2023-09-19T14:09:38;82.90;;;3.00;;
4895;SDS011;2463;49.948;8.472;2023-09-19T14:12:05;84.60;;;3.00;;
4895;SDS011;2463;49.948;8.472;2023-09-19T14:14:32;82.72;;;3.10;;
4895;SDS011;2463;49.948;8.472;2023-09-19T14:16:59;82.90;;;2.90;;
4895;SDS011;2463;49.948;8.472;2023-09-19T14:19:27;84.70;;;3.00;;
4895;SDS011;2463;49.948;8.472;2023-09-19T14:21:54;84.40;;;3.27;;
4895;SDS011;2463;49.948;8.472;2023-09-19T14:24:23;83.50;;;3.10;;
4895;SDS011;2463;49.948;8.472;2023-09-19T14:26:50;85.50;;;3.40;;
4895;SDS011;2463;49.948;8.472;2023-09-19T14:29:16;89.67;;;3.33;;
4895;SDS011;2463;49.948;8.472;2023-09-19T14:31:43;83.22;;;2.80;;
4895;SDS011;2463;49.948;8.472;2023-09-19T14:34:10;90.55;;;3.45;;
4895;SDS011;2463;49.948;8.472;2023-09-19T14:36:37;84.03;;;3.20;;
4895;SDS011;2463;49.948;8.472;2023-09-19T14:39:07;85.25;;;3.40;;
4895;SDS011;2463;49.948;8.472;2023-09-19T14:41:36;88.80;;;3.40;;
4895;SDS011;2463;49.948;8.472;2023-09-19T14:44:03;84.15;;;3.40;;
4895;SDS011;2463;49.948;8.472;2023-09-19T14:46:31;89.25;;;3.55;;
4895;SDS011;2463;49.948;8.472;2023-09-19T14:48:58;88.07;;;3.70;;
4895;SDS011;2463;49.948;8.472;2023-09-19T14:51:30;82.47;;;3.05;;
4895;SDS011;2463;49.948;8.472;2023-09-19T14:53:57;89.72;;;3.15;;
4895;SDS011;2463;49.948;8.472;2023-09-19T14:56:26;82.30;;;3.07;;
4895;SDS011;2463;49.948;8.472;2023-09-19T14:58:54;87.35;;;3.40;;
4895;SDS011;2463;49.948;8.472;2023-09-19T15:01:21;81.13;;;3.10;;
4895;SDS011;2463;49.948;8.472;2023-09-19T15:03:48;83.53;;;3.10;;
4895;SDS011;2463;49.948;8.472;2023-09-19T15:06:16;83.40;;;3.30;;
4895;SDS011;2463;49.948;8.472;2023-09-19T15:08:47;92.53;;;3.17;;
4895;SDS011;2463;49.948;8.472;2023-09-19T15:11:15;85.77;;;3.30;;
4895;SDS011;2463;49.948;8.472;2023-09-19T15:13:45;82.17;;;3.17;;
4895;SDS011;2463;49.948;8.472;2023-09-19T15:16:12;82.27;;;2.80;;
4895;SDS011;2463;49.948;8.472;2023-09-19T15:18:41;83.27;;;2.93;;
4895;SDS011;2463;49.948;8.472;2023-09-19T15:21:09;82.23;;;3.10;;
4895;SDS011;2463;49.948;8.472;2023-09-19T15:23:38;82.45;;;3.03;;
4895;SDS011;2463;49.948;8.472;2023-09-19T15:26:13;82.72;;;2.75;;
4895;SDS011;2463;49.948;8.472;2023-09-19T15:28:47;85.00;;;3.78;;
4895;SDS011;2463;49.948;8.472;2023-09-19T15:31:14;85.07;;;3.10;;
4895;SDS011;2463;49.948;8.472;2023-09-19T15:33:41;85.35;;;3.40;;
4895;SDS011;2463;49.948;8.472;2023-09-19T15:41:38;86.77;;;3.53;;
4895;SDS011;2463;49.948;8.472;2023-09-19T15:44:14;82.83;;;2.83;;
4895;SDS011;2463;49.948;8.472;2023-09-19T15:46:42;82.27;;;3.07;;
4895;SDS011;2463;49.948;8.472;2023-09-19T15:49:10;82.60;;;3.50;;
4895;SDS011;2463;49.948;8.472;2023-09-19T15:51:37;83.45;;;3.13;;
4895;SDS011;2463;49.948;8.472;2023-09-19T15:54:10;83.72;;;3.10;;
4895;SDS011;2463;49.948;8.472;2023-09-19T15:56:42;83.70;;;3.20;;
4895;SDS011;2463;49.948;8.472;2023-09-19T15:59:09;83.28;;;3.22;;
4895;SDS011;2463;49.948;8.472;2023-09-19T16:01:39;85.50;;;3.30;;
4895;SDS011;2463;49.948;8.472;2023-09-19T16:04:12;84.32;;;3.45;;
4895;SDS011;2463;49.948;8.472;2023-09-19T16:06:39;83.25;;;3.08;;
4895;SDS011;2463;49.948;8.472;2023-09-19T16:09:08;83.05;;;3.10;;
4895;SDS011;2463;49.948;8.472;2023-09-19T16:11:36;84.37;;;3.13;;
4895;SDS011;2463;49.948;8.472;2023-09-19T16:14:03;85.07;;;3.20;;
4895;SDS011;2463;49.948;8.472;2023-09-19T16:16:36;85.50;;;3.88;;
4895;SDS011;2463;49.948;8.472;2023-09-19T16:19:04;85.80;;;3.25;;
4895;SDS011;2463;49.948;8.472;2023-09-19T16:21:36;90.47;;;3.67;;
4895;SDS011;2463;49.948;8.472;2023-09-19T16:24:03;84.97;;;3.30;;
4895;SDS011;2463;49.948;8.472;2023-09-19T16:26:34;87.03;;;3.30;;
4895;SDS011;2463;49.948;8.472;2023-09-19T16:29:01;88.50;;;3.60;;
4895;SDS011;2463;49.948;8.472;2023-09-19T16:31:28;84.95;;;3.30;;
4895;SDS011;2463;49.948;8.472;2023-09-19T16:33:57;83.93;;;3.20;;
4895;SDS011;2463;49.948;8.472;2023-09-19T16:36:26;87.13;;;3.40;;
4895;SDS011;2463;49.948;8.472;2023-09-19T16:38:53;84.80;;;3.28;;
4895;SDS011;2463;49.948;8.472;2023-09-19T16:41:19;88.57;;;3.47;;
4895;SDS011;2463;49.948;8.472;2023-09-19T16:43:47;85.70;;;3.45;;
4895;SDS011;2463;49.948;8.472;2023-09-19T16:46:14;84.07;;;3.15;;
4895;SDS011;2463;49.948;8.472;2023-09-19T16:48:44;83.63;;;3.38;;
4895;SDS011;2463;49.948;8.472;2023-09-19T16:51:15;86.50;;;3.30;;
4895;SDS011;2463;49.948;8.472;2023-09-19T16:53:42;84.72;;;3.30;;
4895;SDS011;2463;49.948;8.472;2023-09-19T16:56:12;86.53;;;3.40;;
4895;SDS011;2463;49.948;8.472;2023-09-19T16:58:41;87.75;;;3.08;;
4895;SDS011;2463;49.948;8.472;2023-09-19T17:01:10;85.47;;;3.22;;
4895;SDS011;2463;49.948;8.472;2023-09-19T17:03:39;85.32;;;3.60;;
4895;SDS011;2463;49.948;8.472;2023-09-19T17:06:07;84.45;;;3.20;;
4895;SDS011;2463;49.948;8.472;2023-09-19T17:08:37;87.38;;;3.60;;
4895;SDS011;2463;49.948;8.472;2023-09-19T17:11:08;85.03;;;3.20;;
4895;SDS011;2463;49.948;8.472;2023-09-19T17:13:39;86.85;;;3.40;;
4895;SDS011;2463;49.948;8.472;2023-09-19T17:16:10;84.70;;;3.10;;
4895;SDS011;2463;49.948;8.472;2023-09-19T17:18:38;85.95;;;3.25;;
4895;SDS011;2463;49.948;8.472;2023-09-19T17:21:09;85.32;;;3.40;;
4895;SDS011;2463;49.948;8.472;2023-09-19T17:23:39;85.30;;;3.38;;
4895;SDS011;2463;49.948;8.472;2023-09-19T17:26:08;84.72;;;3.40;;
4895;SDS011;2463;49.948;8.472;2023-09-19T17:28:36;85.95;;;3.40;;